sensor_id;sensor_type;location;lat;lon;timestamp;temperature;humidity
573;DHT22;271;51.114;13.780;2023-07-30T05:40:13;19.60;1.00
573;DHT22;271;51.114;13.780;2023-07-30T05:43:03;19.70;1.00
573;DHT22;271;51.114;13.780;2023-07-30T05:46:06;19.80;1.00
573;DHT22;271;51.114;13.780;2023-07-30T05:49:03;19.80;1.00
573;DHT22;271;51.114;13.780;2023-07-30T05:52:11;19.60;1.00
573;DHT22;271;51.114;13.780;2023-07-30T06:14:43;19.80;1.00
573;DHT22;271;51.114;13.780;2023-07-30T06:37:28;19.80;1.00
573;DHT22;271;51.114;13.780;2023-07-30T06:44:24;20.10;1.00
573;DHT22;271;51.114;13.780;2023-07-30T06:47:11;20.30;1.00
573;DHT22;271;51.114;13.780;2023-07-30T06:50:01;20.40;1.00
573;DHT22;271;51.114;13.780;2023-07-30T06:52:49;20.60;1.00
573;DHT22;271;51.114;13.780;2023-07-30T06:55:37;21.00;1.00
573;DHT22;271;51.114;13.780;2023-07-30T06:58:24;21.10;1.00
573;DHT22;271;51.114;13.780;2023-07-30T07:01:12;21.40;1.00
573;DHT22;271;51.114;13.780;2023-07-30T07:04:00;21.90;1.00
573;DHT22;271;51.114;13.780;2023-07-30T07:06:49;22.40;1.00
573;DHT22;271;51.114;13.780;2023-07-30T07:09:37;22.90;1.00
573;DHT22;271;51.114;13.780;2023-07-30T07:12:25;23.50;1.00
573;DHT22;271;51.114;13.780;2023-07-30T07:15:13;23.80;1.00
573;DHT22;271;51.114;13.780;2023-07-30T07:18:01;23.80;1.00
573;DHT22;271;51.114;13.780;2023-07-30T07:20:48;23.80;1.00
573;DHT22;271;51.114;13.780;2023-07-30T07:23:37;23.60;1.00
573;DHT22;271;51.114;13.780;2023-07-30T07:26:25;23.60;1.00
573;DHT22;271;51.114;13.780;2023-07-30T07:29:13;23.50;1.00
573;DHT22;271;51.114;13.780;2023-07-30T07:32:00;23.50;1.00
573;DHT22;271;51.114;13.780;2023-07-30T07:34:48;23.70;1.00
573;DHT22;271;51.114;13.780;2023-07-30T07:37:36;25.20;1.00
573;DHT22;271;51.114;13.780;2023-07-30T07:40:36;25.30;1.00
573;DHT22;271;51.114;13.780;2023-07-30T07:43:25;25.10;1.00
573;DHT22;271;51.114;13.780;2023-07-30T07:46:13;24.30;1.00
573;DHT22;271;51.114;13.780;2023-07-30T07:49:01;24.10;1.00
573;DHT22;271;51.114;13.780;2023-07-30T07:51:49;23.90;1.00
573;DHT22;271;51.114;13.780;2023-07-30T07:54:36;23.60;1.00
573;DHT22;271;51.114;13.780;2023-07-30T07:57:26;23.70;1.00
573;DHT22;271;51.114;13.780;2023-07-30T08:00:13;24.40;1.00
573;DHT22;271;51.114;13.780;2023-07-30T08:03:01;24.60;1.00
573;DHT22;271;51.114;13.780;2023-07-30T08:05:49;24.90;1.00
573;DHT22;271;51.114;13.780;2023-07-30T08:08:40;25.40;1.00
573;DHT22;271;51.114;13.780;2023-07-30T08:11:28;26.30;1.00
573;DHT22;271;51.114;13.780;2023-07-30T08:14:19;27.50;1.00
573;DHT22;271;51.114;13.780;2023-07-30T08:17:07;28.40;1.00
573;DHT22;271;51.114;13.780;2023-07-30T08:19:55;29.40;1.00
573;DHT22;271;51.114;13.780;2023-07-30T08:22:43;29.10;1.00
573;DHT22;271;51.114;13.780;2023-07-30T08:25:33;28.50;1.00
573;DHT22;271;51.114;13.780;2023-07-30T08:28:21;29.10;1.00
573;DHT22;271;51.114;13.780;2023-07-30T08:31:13;29.60;1.00
573;DHT22;271;51.114;13.780;2023-07-30T08:34:01;30.50;1.00
573;DHT22;271;51.114;13.780;2023-07-30T08:36:49;30.90;1.00
573;DHT22;271;51.114;13.780;2023-07-30T08:39:36;31.10;1.00
573;DHT22;271;51.114;13.780;2023-07-30T08:42:27;30.50;1.00
573;DHT22;271;51.114;13.780;2023-07-30T08:45:16;30.10;1.00
573;DHT22;271;51.114;13.780;2023-07-30T08:48:06;30.20;1.00
573;DHT22;271;51.114;13.780;2023-07-30T08:50:56;29.90;1.00
573;DHT22;271;51.114;13.780;2023-07-30T08:53:44;29.90;1.00
573;DHT22;271;51.114;13.780;2023-07-30T08:56:32;29.40;1.00
573;DHT22;271;51.114;13.780;2023-07-30T08:59:22;28.60;1.00
573;DHT22;271;51.114;13.780;2023-07-30T09:02:30;28.10;1.00
573;DHT22;271;51.114;13.780;2023-07-30T09:05:35;27.70;1.00
573;DHT22;271;51.114;13.780;2023-07-30T09:08:24;27.90;1.00
573;DHT22;271;51.114;13.780;2023-07-30T09:11:11;27.80;1.00
573;DHT22;271;51.114;13.780;2023-07-30T09:14:01;27.60;1.00
573;DHT22;271;51.114;13.780;2023-07-30T09:16:56;27.60;1.00
573;DHT22;271;51.114;13.780;2023-07-30T09:19:44;28.00;1.00
573;DHT22;271;51.114;13.780;2023-07-30T09:22:34;28.30;1.00
573;DHT22;271;51.114;13.780;2023-07-30T09:25:28;28.30;1.00
573;DHT22;271;51.114;13.780;2023-07-30T09:28:21;27.90;1.00
573;DHT22;271;51.114;13.780;2023-07-30T09:31:25;27.70;1.00
573;DHT22;271;51.114;13.780;2023-07-30T09:34:18;27.60;1.00
573;DHT22;271;51.114;13.780;2023-07-30T09:37:08;27.70;1.00
573;DHT22;271;51.114;13.780;2023-07-30T09:40:00;27.70;1.00
573;DHT22;271;51.114;13.780;2023-07-30T09:42:49;27.60;1.00
573;DHT22;271;51.114;13.780;2023-07-30T09:45:37;27.60;1.00
573;DHT22;271;51.114;13.780;2023-07-30T09:48:24;27.40;1.00
573;DHT22;271;51.114;13.780;2023-07-30T09:51:12;27.30;1.00
573;DHT22;271;51.114;13.780;2023-07-30T09:54:01;27.00;1.00
573;DHT22;271;51.114;13.780;2023-07-30T09:56:50;26.80;1.00
573;DHT22;271;51.114;13.780;2023-07-30T09:59:38;26.50;1.00
573;DHT22;271;51.114;13.780;2023-07-30T10:02:27;26.40;1.00
573;DHT22;271;51.114;13.780;2023-07-30T10:05:18;26.50;1.00
573;DHT22;271;51.114;13.780;2023-07-30T10:08:10;26.60;1.00
573;DHT22;271;51.114;13.780;2023-07-30T10:11:00;26.40;1.00
573;DHT22;271;51.114;13.780;2023-07-30T10:13:52;26.20;1.00
573;DHT22;271;51.114;13.780;2023-07-30T10:17:09;26.00;1.00
573;DHT22;271;51.114;13.780;2023-07-30T10:19:56;25.80;1.00
573;DHT22;271;51.114;13.780;2023-07-30T10:22:45;25.50;1.00
573;DHT22;271;51.114;13.780;2023-07-30T10:25:43;25.20;1.00
573;DHT22;271;51.114;13.780;2023-07-30T10:28:32;25.20;1.00
573;DHT22;271;51.114;13.780;2023-07-30T10:31:38;25.30;1.00
573;DHT22;271;51.114;13.780;2023-07-30T10:34:46;25.30;1.00
573;DHT22;271;51.114;13.780;2023-07-30T10:37:34;25.30;1.00
573;DHT22;271;51.114;13.780;2023-07-30T10:40:23;25.40;1.00
573;DHT22;271;51.114;13.780;2023-07-30T10:43:29;25.30;1.00
573;DHT22;271;51.114;13.780;2023-07-30T10:46:19;25.60;1.00
573;DHT22;271;51.114;13.780;2023-07-30T10:49:09;25.80;1.00
573;DHT22;271;51.114;13.780;2023-07-30T10:51:58;25.70;1.00
573;DHT22;271;51.114;13.780;2023-07-30T10:54:47;25.40;1.00
573;DHT22;271;51.114;13.780;2023-07-30T10:57:42;25.10;1.00
573;DHT22;271;51.114;13.780;2023-07-30T11:00:30;25.50;1.00
573;DHT22;271;51.114;13.780;2023-07-30T11:03:19;25.80;1.00
573;DHT22;271;51.114;13.780;2023-07-30T11:06:08;26.50;1.00
573;DHT22;271;51.114;13.780;2023-07-30T11:08:57;27.10;1.00
573;DHT22;271;51.114;13.780;2023-07-30T11:11:44;27.10;1.00
573;DHT22;271;51.114;13.780;2023-07-30T11:14:32;27.10;1.00
573;DHT22;271;51.114;13.780;2023-07-30T11:17:20;27.30;1.00
573;DHT22;271;51.114;13.780;2023-07-30T11:20:08;27.40;1.00
573;DHT22;271;51.114;13.780;2023-07-30T11:23:34;27.40;1.00
573;DHT22;271;51.114;13.780;2023-07-30T11:26:22;27.60;1.00
573;DHT22;271;51.114;13.780;2023-07-30T11:29:16;27.60;1.00
573;DHT22;271;51.114;13.780;2023-07-30T11:32:05;27.30;1.00
573;DHT22;271;51.114;13.780;2023-07-30T11:34:53;27.00;1.00
573;DHT22;271;51.114;13.780;2023-07-30T11:37:41;27.00;1.00
573;DHT22;271;51.114;13.780;2023-07-30T11:40:31;26.90;1.00
573;DHT22;271;51.114;13.780;2023-07-30T11:43:19;26.80;1.00
573;DHT22;271;51.114;13.780;2023-07-30T11:46:11;26.60;1.00
573;DHT22;271;51.114;13.780;2023-07-30T11:49:31;26.60;1.00
573;DHT22;271;51.114;13.780;2023-07-30T11:52:59;26.60;1.00
573;DHT22;271;51.114;13.780;2023-07-30T11:55:39;26.80;1.00
573;DHT22;271;51.114;13.780;2023-07-30T11:58:28;26.70;1.00
573;DHT22;271;51.114;13.780;2023-07-30T12:01:17;26.60;1.00
573;DHT22;271;51.114;13.780;2023-07-30T12:04:05;26.60;1.00
573;DHT22;271;51.114;13.780;2023-07-30T12:06:53;26.50;1.00
573;DHT22;271;51.114;13.780;2023-07-30T12:09:43;26.60;1.00
573;DHT22;271;51.114;13.780;2023-07-30T12:12:32;26.60;1.00
573;DHT22;271;51.114;13.780;2023-07-30T12:15:22;26.60;1.00
573;DHT22;271;51.114;13.780;2023-07-30T12:18:10;26.60;1.00
573;DHT22;271;51.114;13.780;2023-07-30T12:21:01;26.60;1.00
573;DHT22;271;51.114;13.780;2023-07-30T12:23:49;26.60;1.00
573;DHT22;271;51.114;13.780;2023-07-30T12:26:36;26.60;1.00
573;DHT22;271;51.114;13.780;2023-07-30T12:29:25;26.80;1.00
573;DHT22;271;51.114;13.780;2023-07-30T12:32:16;26.90;1.00
573;DHT22;271;51.114;13.780;2023-07-30T12:35:04;26.90;1.00
573;DHT22;271;51.114;13.780;2023-07-30T12:37:52;26.90;1.00
573;DHT22;271;51.114;13.780;2023-07-30T12:40:40;26.80;1.00
573;DHT22;271;51.114;13.780;2023-07-30T12:43:30;26.70;1.00
573;DHT22;271;51.114;13.780;2023-07-30T12:46:20;26.70;1.00
573;DHT22;271;51.114;13.780;2023-07-30T12:51:47;26.70;1.00
573;DHT22;271;51.114;13.780;2023-07-30T12:55:07;26.80;1.00
573;DHT22;271;51.114;13.780;2023-07-30T12:58:29;26.70;1.00
573;DHT22;271;51.114;13.780;2023-07-30T13:02:04;26.60;1.00
573;DHT22;271;51.114;13.780;2023-07-30T13:05:25;26.80;1.00
573;DHT22;271;51.114;13.780;2023-07-30T13:08:19;26.80;1.00
573;DHT22;271;51.114;13.780;2023-07-30T13:11:07;26.80;1.00
573;DHT22;271;51.114;13.780;2023-07-30T13:13:55;26.80;1.00
573;DHT22;271;51.114;13.780;2023-07-30T13:16:43;26.80;1.00
573;DHT22;271;51.114;13.780;2023-07-30T13:19:35;26.90;1.00
573;DHT22;271;51.114;13.780;2023-07-30T13:22:22;26.70;1.00
573;DHT22;271;51.114;13.780;2023-07-30T13:25:13;26.60;1.00
573;DHT22;271;51.114;13.780;2023-07-30T13:28:01;26.60;1.00
573;DHT22;271;51.114;13.780;2023-07-30T13:30:49;26.60;1.00
573;DHT22;271;51.114;13.780;2023-07-30T13:33:37;26.80;1.00
573;DHT22;271;51.114;13.780;2023-07-30T13:36:29;26.90;1.00
573;DHT22;271;51.114;13.780;2023-07-30T13:39:17;27.00;1.00
573;DHT22;271;51.114;13.780;2023-07-30T13:42:05;26.90;1.00
573;DHT22;271;51.114;13.780;2023-07-30T13:44:52;26.80;1.00
573;DHT22;271;51.114;13.780;2023-07-30T13:47:44;26.80;1.00
573;DHT22;271;51.114;13.780;2023-07-30T13:54:08;26.80;1.00
573;DHT22;271;51.114;13.780;2023-07-30T13:56:56;26.70;1.00
573;DHT22;271;51.114;13.780;2023-07-30T13:59:50;26.60;1.00
573;DHT22;271;51.114;13.780;2023-07-30T14:02:53;26.70;1.00
573;DHT22;271;51.114;13.780;2023-07-30T14:05:48;26.70;1.00
573;DHT22;271;51.114;13.780;2023-07-30T14:08:40;26.80;1.00
573;DHT22;271;51.114;13.780;2023-07-30T14:11:38;26.80;1.00
573;DHT22;271;51.114;13.780;2023-07-30T14:14:46;26.60;1.00
573;DHT22;271;51.114;13.780;2023-07-30T14:17:45;26.60;1.00
573;DHT22;271;51.114;13.780;2023-07-30T14:20:33;26.40;1.00
573;DHT22;271;51.114;13.780;2023-07-30T14:23:26;26.60;1.00
573;DHT22;271;51.114;13.780;2023-07-30T14:26:48;26.70;1.00
573;DHT22;271;51.114;13.780;2023-07-30T14:30:08;27.00;1.00
573;DHT22;271;51.114;13.780;2023-07-30T14:32:57;26.80;1.00
573;DHT22;271;51.114;13.780;2023-07-30T14:35:45;26.70;1.00
573;DHT22;271;51.114;13.780;2023-07-30T14:38:33;26.60;1.00
573;DHT22;271;51.114;13.780;2023-07-30T14:41:21;26.50;1.00
573;DHT22;271;51.114;13.780;2023-07-30T14:44:14;26.30;1.00
573;DHT22;271;51.114;13.780;2023-07-30T14:47:29;26.10;1.00
573;DHT22;271;51.114;13.780;2023-07-30T15:01:09;25.00;1.00
573;DHT22;271;51.114;13.780;2023-07-30T15:04:30;25.00;1.00
573;DHT22;271;51.114;13.780;2023-07-30T15:07:19;24.90;1.00
573;DHT22;271;51.114;13.780;2023-07-30T15:10:12;24.70;1.00
573;DHT22;271;51.114;13.780;2023-07-30T15:13:03;24.50;1.00
573;DHT22;271;51.114;13.780;2023-07-30T15:15:51;24.00;1.00
573;DHT22;271;51.114;13.780;2023-07-30T15:18:41;23.90;1.00
573;DHT22;271;51.114;13.780;2023-07-30T15:21:30;23.40;1.00
573;DHT22;271;51.114;13.780;2023-07-30T15:24:17;22.80;1.00
573;DHT22;271;51.114;13.780;2023-07-30T15:27:05;22.00;1.00
573;DHT22;271;51.114;13.780;2023-07-30T15:29:53;21.10;1.00
573;DHT22;271;51.114;13.780;2023-07-30T15:32:42;20.40;1.00
573;DHT22;271;51.114;13.780;2023-07-30T15:35:31;20.10;1.00
573;DHT22;271;51.114;13.780;2023-07-30T15:38:19;19.90;1.00
573;DHT22;271;51.114;13.780;2023-07-30T15:41:07;19.70;1.00
573;DHT22;271;51.114;13.780;2023-07-30T15:43:54;19.60;1.00
573;DHT22;271;51.114;13.780;2023-07-30T15:46:44;19.50;4.50
573;DHT22;271;51.114;13.780;2023-07-30T15:49:33;19.50;13.40
573;DHT22;271;51.114;13.780;2023-07-30T15:52:22;19.50;8.90
573;DHT22;271;51.114;13.780;2023-07-30T15:55:09;19.50;4.30
573;DHT22;271;51.114;13.780;2023-07-30T15:57:57;19.40;7.80
573;DHT22;271;51.114;13.780;2023-07-30T16:00:46;19.50;3.10
573;DHT22;271;51.114;13.780;2023-07-30T16:03:33;19.40;5.80
573;DHT22;271;51.114;13.780;2023-07-30T16:06:23;19.40;5.80
573;DHT22;271;51.114;13.780;2023-07-30T16:09:13;19.30;3.00
573;DHT22;271;51.114;13.780;2023-07-30T16:12:00;19.30;3.40
573;DHT22;271;51.114;13.780;2023-07-30T16:14:50;19.20;1.00
573;DHT22;271;51.114;13.780;2023-07-30T16:17:38;19.10;3.80
573;DHT22;271;51.114;13.780;2023-07-30T16:20:26;19.20;3.40
573;DHT22;271;51.114;13.780;2023-07-30T16:23:14;19.20;6.10
573;DHT22;271;51.114;13.780;2023-07-30T16:26:03;19.20;4.80
573;DHT22;271;51.114;13.780;2023-07-30T16:28:52;19.10;3.40
573;DHT22;271;51.114;13.780;2023-07-30T16:31:39;19.10;1.00
573;DHT22;271;51.114;13.780;2023-07-30T16:34:27;19.10;1.00
573;DHT22;271;51.114;13.780;2023-07-30T16:37:15;19.10;1.00
573;DHT22;271;51.114;13.780;2023-07-30T16:40:06;19.20;2.50
573;DHT22;271;51.114;13.780;2023-07-30T16:42:55;19.20;1.00
573;DHT22;271;51.114;13.780;2023-07-30T16:45:43;19.20;1.00
573;DHT22;271;51.114;13.780;2023-07-30T16:48:30;19.20;1.00
573;DHT22;271;51.114;13.780;2023-07-30T16:51:19;19.30;1.00
573;DHT22;271;51.114;13.780;2023-07-30T16:54:07;19.30;1.10
573;DHT22;271;51.114;13.780;2023-07-30T16:56:59;19.40;1.60
573;DHT22;271;51.114;13.780;2023-07-30T16:59:48;19.40;1.00
573;DHT22;271;51.114;13.780;2023-07-30T17:02:35;19.30;1.00
573;DHT22;271;51.114;13.780;2023-07-30T17:05:23;19.40;5.70
573;DHT22;271;51.114;13.780;2023-07-30T17:08:14;19.40;1.50
573;DHT22;271;51.114;13.780;2023-07-30T17:11:05;19.30;1.00
573;DHT22;271;51.114;13.780;2023-07-30T17:13:53;19.30;6.00
573;DHT22;271;51.114;13.780;2023-07-30T17:16:42;19.30;9.00
573;DHT22;271;51.114;13.780;2023-07-30T17:19:30;19.30;9.20
573;DHT22;271;51.114;13.780;2023-07-30T17:22:18;19.20;7.00
573;DHT22;271;51.114;13.780;2023-07-30T17:25:06;19.30;7.50
573;DHT22;271;51.114;13.780;2023-07-30T17:27:54;19.30;10.40
573;DHT22;271;51.114;13.780;2023-07-30T17:30:42;19.20;9.70
573;DHT22;271;51.114;13.780;2023-07-30T17:33:31;19.20;6.90
573;DHT22;271;51.114;13.780;2023-07-30T17:36:18;19.00;11.30
573;DHT22;271;51.114;13.780;2023-07-30T17:39:06;18.90;13.60
573;DHT22;271;51.114;13.780;2023-07-30T17:41:54;18.80;14.10
573;DHT22;271;51.114;13.780;2023-07-30T17:44:42;18.70;17.90
573;DHT22;271;51.114;13.780;2023-07-30T17:47:30;18.60;22.40
573;DHT22;271;51.114;13.780;2023-07-30T17:50:20;18.60;14.70
573;DHT22;271;51.114;13.780;2023-07-30T17:53:07;18.60;11.50
573;DHT22;271;51.114;13.780;2023-07-30T17:55:58;18.50;14.00
573;DHT22;271;51.114;13.780;2023-07-30T17:58:46;18.40;11.00
573;DHT22;271;51.114;13.780;2023-07-30T18:01:34;18.40;15.90
573;DHT22;271;51.114;13.780;2023-07-30T18:04:22;18.40;20.60
573;DHT22;271;51.114;13.780;2023-07-30T18:07:11;18.40;17.50
573;DHT22;271;51.114;13.780;2023-07-30T18:09:58;18.40;20.50
573;DHT22;271;51.114;13.780;2023-07-30T18:12:46;18.30;26.20
573;DHT22;271;51.114;13.780;2023-07-30T18:15:34;18.20;17.70
573;DHT22;271;51.114;13.780;2023-07-30T18:18:22;18.20;11.10
573;DHT22;271;51.114;13.780;2023-07-30T18:21:09;18.00;2.10
573;DHT22;271;51.114;13.780;2023-07-30T18:23:58;17.90;1.00
573;DHT22;271;51.114;13.780;2023-07-30T18:26:46;17.70;1.00
573;DHT22;271;51.114;13.780;2023-07-30T18:29:34;17.70;1.00
573;DHT22;271;51.114;13.780;2023-07-30T18:32:21;17.60;1.00
573;DHT22;271;51.114;13.780;2023-07-30T18:35:09;17.50;1.00
573;DHT22;271;51.114;13.780;2023-07-30T18:37:57;17.40;2.20
573;DHT22;271;51.114;13.780;2023-07-30T18:40:46;17.40;2.30
573;DHT22;271;51.114;13.780;2023-07-30T18:43:34;17.30;3.40
573;DHT22;271;51.114;13.780;2023-07-30T18:46:22;17.30;6.50
573;DHT22;271;51.114;13.780;2023-07-30T18:49:09;17.20;5.10
573;DHT22;271;51.114;13.780;2023-07-30T18:51:57;17.20;6.60
573;DHT22;271;51.114;13.780;2023-07-30T18:54:45;17.20;5.20
573;DHT22;271;51.114;13.780;2023-07-30T18:57:34;17.20;5.80
573;DHT22;271;51.114;13.780;2023-07-30T19:00:21;17.10;6.80
573;DHT22;271;51.114;13.780;2023-07-30T19:03:09;17.10;9.70
573;DHT22;271;51.114;13.780;2023-07-30T19:05:58;17.10;10.00
573;DHT22;271;51.114;13.780;2023-07-30T19:08:47;17.00;9.80
573;DHT22;271;51.114;13.780;2023-07-30T19:11:35;17.00;10.10
573;DHT22;271;51.114;13.780;2023-07-30T19:14:25;17.00;11.20
573;DHT22;271;51.114;13.780;2023-07-30T19:17:12;16.90;12.20
573;DHT22;271;51.114;13.780;2023-07-30T19:20:00;16.90;10.00
573;DHT22;271;51.114;13.780;2023-07-30T19:22:48;16.80;8.70
573;DHT22;271;51.114;13.780;2023-07-30T19:25:36;16.70;9.80
573;DHT22;271;51.114;13.780;2023-07-30T19:28:24;16.70;11.50
573;DHT22;271;51.114;13.780;2023-07-30T19:31:13;16.70;11.90
573;DHT22;271;51.114;13.780;2023-07-30T19:34:07;16.70;12.90
573;DHT22;271;51.114;13.780;2023-07-30T19:36:56;16.70;13.00
573;DHT22;271;51.114;13.780;2023-07-30T19:39:44;16.60;13.90
573;DHT22;271;51.114;13.780;2023-07-30T19:42:31;16.60;11.50
573;DHT22;271;51.114;13.780;2023-07-30T19:45:19;16.60;11.70
573;DHT22;271;51.114;13.780;2023-07-30T19:48:08;16.70;10.30
573;DHT22;271;51.114;13.780;2023-07-30T19:50:55;16.60;7.10
573;DHT22;271;51.114;13.780;2023-07-30T19:53:43;16.60;2.90
573;DHT22;271;51.114;13.780;2023-07-30T19:56:31;16.50;6.40
573;DHT22;271;51.114;13.780;2023-07-30T19:59:19;16.50;5.60
573;DHT22;271;51.114;13.780;2023-07-30T20:02:06;16.50;5.90
573;DHT22;271;51.114;13.780;2023-07-30T20:04:56;16.50;2.90
573;DHT22;271;51.114;13.780;2023-07-30T20:07:43;16.40;7.80
573;DHT22;271;51.114;13.780;2023-07-30T20:10:32;16.50;8.30
573;DHT22;271;51.114;13.780;2023-07-30T20:13:19;16.40;8.70
573;DHT22;271;51.114;13.780;2023-07-30T20:16:11;16.30;8.80
573;DHT22;271;51.114;13.780;2023-07-30T20:18:59;16.30;9.90
573;DHT22;271;51.114;13.780;2023-07-30T20:21:48;16.20;11.30
573;DHT22;271;51.114;13.780;2023-07-30T20:24:36;16.10;12.50
573;DHT22;271;51.114;13.780;2023-07-30T20:27:23;16.10;12.80
573;DHT22;271;51.114;13.780;2023-07-30T20:30:11;16.00;11.70
573;DHT22;271;51.114;13.780;2023-07-30T20:32:59;16.00;13.70
573;DHT22;271;51.114;13.780;2023-07-30T20:35:49;15.90;16.80
573;DHT22;271;51.114;13.780;2023-07-30T20:38:38;16.00;12.30
573;DHT22;271;51.114;13.780;2023-07-30T20:41:26;15.90;10.70
573;DHT22;271;51.114;13.780;2023-07-30T20:44:13;15.90;12.70
573;DHT22;271;51.114;13.780;2023-07-30T20:47:01;15.90;12.10
573;DHT22;271;51.114;13.780;2023-07-30T20:49:49;15.90;9.10
573;DHT22;271;51.114;13.780;2023-07-30T20:52:37;15.80;9.80
573;DHT22;271;51.114;13.780;2023-07-30T20:55:26;15.70;7.70
573;DHT22;271;51.114;13.780;2023-07-30T20:58:14;15.70;7.50
573;DHT22;271;51.114;13.780;2023-07-30T21:01:02;15.70;9.70
573;DHT22;271;51.114;13.780;2023-07-30T21:03:50;15.60;10.30
573;DHT22;271;51.114;13.780;2023-07-30T21:06:38;15.60;10.40
573;DHT22;271;51.114;13.780;2023-07-30T21:09:25;15.60;12.30
573;DHT22;271;51.114;13.780;2023-07-30T21:12:15;15.60;13.20
573;DHT22;271;51.114;13.780;2023-07-30T21:15:03;15.60;9.70
573;DHT22;271;51.114;13.780;2023-07-30T21:17:51;15.50;11.20
573;DHT22;271;51.114;13.780;2023-07-30T21:20:38;15.50;11.80
573;DHT22;271;51.114;13.780;2023-07-30T21:23:26;15.50;14.50
573;DHT22;271;51.114;13.780;2023-07-30T21:26:14;15.50;11.60
573;DHT22;271;51.114;13.780;2023-07-30T21:29:03;15.50;13.00
573;DHT22;271;51.114;13.780;2023-07-30T21:31:50;15.50;14.70
573;DHT22;271;51.114;13.780;2023-07-30T21:34:38;15.40;17.40
573;DHT22;271;51.114;13.780;2023-07-30T21:37:26;15.50;13.50
573;DHT22;271;51.114;13.780;2023-07-30T21:40:15;15.50;12.40
573;DHT22;271;51.114;13.780;2023-07-30T21:43:02;15.40;12.70
573;DHT22;271;51.114;13.780;2023-07-30T21:45:52;15.50;15.40
573;DHT22;271;51.114;13.780;2023-07-30T21:48:40;15.50;15.40
573;DHT22;271;51.114;13.780;2023-07-30T21:51:28;15.50;16.10
573;DHT22;271;51.114;13.780;2023-07-30T21:54:15;15.50;16.00
573;DHT22;271;51.114;13.780;2023-07-30T21:57:03;15.50;17.30
573;DHT22;271;51.114;13.780;2023-07-30T21:59:52;15.50;16.20
573;DHT22;271;51.114;13.780;2023-07-30T22:02:41;15.50;16.40
573;DHT22;271;51.114;13.780;2023-07-30T22:05:29;15.40;16.80
573;DHT22;271;51.114;13.780;2023-07-30T22:08:16;15.50;15.40
573;DHT22;271;51.114;13.780;2023-07-30T22:11:04;15.50;14.70
573;DHT22;271;51.114;13.780;2023-07-30T22:13:52;15.50;10.30
573;DHT22;271;51.114;13.780;2023-07-30T22:16:39;15.40;9.80
573;DHT22;271;51.114;13.780;2023-07-30T22:19:29;15.40;13.30
573;DHT22;271;51.114;13.780;2023-07-30T22:22:16;15.50;10.90
573;DHT22;271;51.114;13.780;2023-07-30T22:25:04;15.50;6.70
573;DHT22;271;51.114;13.780;2023-07-30T22:27:52;15.50;5.00
573;DHT22;271;51.114;13.780;2023-07-30T22:30:40;15.40;6.00
573;DHT22;271;51.114;13.780;2023-07-30T22:33:28;15.40;7.50
573;DHT22;271;51.114;13.780;2023-07-30T22:36:17;15.30;7.30
573;DHT22;271;51.114;13.780;2023-07-30T22:39:04;15.30;6.80
573;DHT22;271;51.114;13.780;2023-07-30T22:41:52;15.30;4.90
573;DHT22;271;51.114;13.780;2023-07-30T22:44:40;15.30;1.00
573;DHT22;271;51.114;13.780;2023-07-30T22:47:27;15.30;3.90
573;DHT22;271;51.114;13.780;2023-07-30T22:50:15;15.30;1.20
573;DHT22;271;51.114;13.780;2023-07-30T22:53:04;15.20;1.00
573;DHT22;271;51.114;13.780;2023-07-30T22:55:52;15.20;1.80
573;DHT22;271;51.114;13.780;2023-07-30T22:58:40;15.20;2.40
573;DHT22;271;51.114;13.780;2023-07-30T23:01:27;15.00;1.50
573;DHT22;271;51.114;13.780;2023-07-30T23:04:15;15.00;4.70
573;DHT22;271;51.114;13.780;2023-07-30T23:07:03;14.90;4.80
573;DHT22;271;51.114;13.780;2023-07-30T23:09:52;14.90;7.00
573;DHT22;271;51.114;13.780;2023-07-30T23:12:40;14.90;9.20
573;DHT22;271;51.114;13.780;2023-07-30T23:15:28;14.90;8.10
573;DHT22;271;51.114;13.780;2023-07-30T23:18:15;14.90;5.60
573;DHT22;271;51.114;13.780;2023-07-30T23:21:03;14.90;1.10
573;DHT22;271;51.114;13.780;2023-07-30T23:23:51;14.90;5.70
573;DHT22;271;51.114;13.780;2023-07-30T23:26:40;14.90;1.00
573;DHT22;271;51.114;13.780;2023-07-30T23:29:28;14.80;1.00
573;DHT22;271;51.114;13.780;2023-07-30T23:32:15;14.80;1.00
573;DHT22;271;51.114;13.780;2023-07-30T23:35:04;14.70;1.90
573;DHT22;271;51.114;13.780;2023-07-30T23:37:51;14.60;5.40
573;DHT22;271;51.114;13.780;2023-07-30T23:40:39;14.60;4.80
573;DHT22;271;51.114;13.780;2023-07-30T23:43:28;14.50;6.50
573;DHT22;271;51.114;13.780;2023-07-30T23:46:16;14.50;8.60
573;DHT22;271;51.114;13.780;2023-07-30T23:49:04;14.50;6.30
573;DHT22;271;51.114;13.780;2023-07-30T23:51:52;14.50;9.70
573;DHT22;271;51.114;13.780;2023-07-30T23:54:40;14.50;4.80
573;DHT22;271;51.114;13.780;2023-07-30T23:57:27;14.60;6.20
